Time;durP1;ratioP1;P1;durP2;ratioP2;P2;SDS_P1;SDS_P2;PMS_P1;PMS_P2;Temp;Humidity;BMP_temperature;BMP_pressure;BME280_temperature;BME280_humidity;BME280_pressure;Samples;Min_cycle;Max_cycle;Signal;HPM_P1;HPM_P2
2022/05/11 00:01:35;;;;;;;11.00;7.20;;;13.40;99.90;;;;;;5029760;28;20033;-76
2022/05/11 00:04:02;;;;;;;9.45;6.78;;;13.40;99.90;;;;;;5030585;28;20087;-76
2022/05/11 00:06:28;;;;;;;9.23;6.45;;;13.40;99.90;;;;;;5013085;28;20041;-76
2022/05/11 00:08:56;;;;;;;7.68;6.57;;;13.40;99.90;;;;;;5027757;28;20521;-76
2022/05/11 00:11:23;;;;;;;9.40;6.45;;;13.40;99.90;;;;;;5029321;28;20041;-77
2022/05/11 00:13:49;;;;;;;8.32;6.95;;;13.40;99.90;;;;;;5031396;28;20037;-77
2022/05/11 00:16:14;;;;;;;6.93;6.22;;;13.40;99.90;;;;;;5016127;28;20044;-77
2022/05/11 00:18:40;;;;;;;9.32;6.38;;;13.40;99.90;;;;;;5030488;28;20033;-77
2022/05/11 00:21:06;;;;;;;9.75;6.63;;;13.40;99.90;;;;;;5032157;28;20037;-77
2022/05/11 00:23:32;;;;;;;8.77;6.93;;;13.40;99.90;;;;;;5030612;28;20052;-77
2022/05/11 00:25:58;;;;;;;7.13;6.43;;;13.40;99.90;;;;;;5017726;28;20091;-75
2022/05/11 00:28:23;;;;;;;10.43;6.60;;;13.40;99.90;;;;;;5031439;28;20521;-77
2022/05/11 00:30:49;;;;;;;9.65;6.57;;;13.50;99.90;;;;;;5051200;28;20767;-76
2022/05/11 00:33:16;;;;;;;10.43;6.43;;;13.50;99.90;;;;;;5028968;28;20064;-76
2022/05/11 00:35:43;;;;;;;8.40;6.53;;;13.50;99.90;;;;;;5027789;28;20413;-77
2022/05/11 00:38:10;;;;;;;8.23;6.45;;;13.50;99.90;;;;;;5029947;28;20040;-76
2022/05/11 00:40:45;;;;;;;9.80;6.28;;;13.50;99.90;;;;;;5030479;28;20037;-76
2022/05/11 00:43:11;;;;;;;8.80;6.32;;;13.50;99.90;;;;;;5031717;28;20048;-76
2022/05/11 00:45:47;;;;;;;8.60;6.57;;;13.60;99.90;;;;;;5014268;28;20049;-77
2022/05/11 00:51:03;;;;;;;8.13;6.25;;;13.60;99.90;;;;;;5031366;28;20045;-76
2022/05/11 00:53:29;;;;;;;7.38;6.03;;;13.60;99.90;;;;;;5033405;28;20037;-75
2022/05/11 00:55:59;;;;;;;8.00;6.03;;;13.60;99.90;;;;;;5033053;28;20037;-75
2022/05/11 00:58:55;;;;;;;10.98;6.47;;;13.60;99.90;;;;;;5026702;28;20409;-77
2022/05/11 01:01:20;;;;;;;9.50;6.30;;;13.60;99.90;;;;;;5029264;28;20862;-77
2022/05/11 01:04:00;;;;;;;6.63;5.97;;;13.60;99.90;;;;;;5012993;28;20044;-77
2022/05/11 01:06:26;;;;;;;9.55;5.80;;;13.60;99.90;;;;;;5033199;28;20332;-77
2022/05/11 01:08:52;;;;;;;8.07;6.20;;;13.60;99.90;;;;;;5032488;28;20040;-76
2022/05/11 01:11:18;;;;;;;6.15;5.63;;;13.60;99.90;;;;;;5024773;28;20044;-76
2022/05/11 01:13:44;;;;;;;7.78;5.03;;;13.60;99.90;;;;;;5024215;28;20044;-76
2022/05/11 01:16:10;;;;;;;8.20;5.40;;;13.60;99.90;;;;;;5008404;28;20044;-77
2022/05/11 01:18:39;;;;;;;7.45;5.43;;;13.60;99.90;;;;;;5028568;28;20039;-77
2022/05/11 01:21:07;;;;;;;8.35;5.18;;;13.60;99.90;;;;;;5030809;28;20071;-76
2022/05/11 01:23:47;;;;;;;7.40;5.65;;;13.50;99.90;;;;;;5023056;28;20058;-77
2022/05/11 01:26:18;;;;;;;6.57;5.00;;;13.50;99.90;;;;;;5029893;28;20091;-76
2022/05/11 01:28:46;;;;;;;6.57;5.00;;;13.50;99.90;;;;;;5031131;28;20048;-77
2022/05/11 01:31:13;;;;;;;7.03;4.97;;;13.50;99.90;;;;;;5023990;28;20045;-77
2022/05/11 01:33:42;;;;;;;9.20;5.07;;;13.50;99.90;;;;;;5020859;28;20450;-77
2022/05/11 01:36:28;;;;;;;6.57;5.05;;;13.50;99.90;;;;;;5003575;28;20048;-77
2022/05/11 01:39:04;;;;;;;8.82;5.40;;;13.50;99.90;;;;;;5028040;28;20064;-77
2022/05/11 01:41:37;;;;;;;7.05;4.90;;;13.50;99.90;;;;;;5028296;28;20156;-77
2022/05/11 01:44:07;;;;;;;6.40;4.97;;;13.50;99.90;;;;;;5031157;28;20051;-77
2022/05/11 01:46:34;;;;;;;6.00;5.40;;;13.50;99.90;;;;;;5031421;28;20036;-77
2022/05/11 01:49:00;;;;;;;6.43;5.72;;;13.50;99.90;;;;;;5011849;28;20081;-78
2022/05/11 01:51:26;;;;;;;9.40;5.70;;;13.50;99.90;;;;;;5026217;28;20129;-77
2022/05/11 01:53:51;;;;;;;7.05;4.97;;;13.40;99.90;;;;;;5028278;28;20068;-77
2022/05/11 01:56:20;;;;;;;5.97;5.22;;;13.40;99.90;;;;;;5019203;28;20033;-77
2022/05/11 01:58:46;;;;;;;5.88;5.28;;;13.50;99.90;;;;;;5009097;28;20045;-76
2022/05/11 02:01:15;;;;;;;6.00;5.25;;;13.50;99.90;;;;;;5025185;28;20067;-76
2022/05/11 02:03:41;;;;;;;6.38;4.88;;;13.50;99.90;;;;;;5024504;28;20094;-76
2022/05/11 02:08:51;;;;;;;8.73;5.28;;;13.50;99.90;;;;;;5031826;28;20692;-77
2022/05/11 02:11:17;;;;;;;9.02;5.40;;;13.50;99.90;;;;;;5020289;28;20465;-76
2022/05/11 02:13:45;;;;;;;6.57;5.25;;;13.40;99.90;;;;;;5031820;28;20076;-77
2022/05/11 02:16:11;;;;;;;9.38;5.53;;;13.40;99.90;;;;;;5027418;28;20486;-77
2022/05/11 02:18:37;;;;;;;6.50;5.07;;;13.40;99.90;;;;;;5014877;28;20048;-77
2022/05/11 02:21:04;;;;;;;7.55;5.50;;;13.40;99.90;;;;;;5031610;28;20037;-76
2022/05/11 02:23:30;;;;;;;7.35;5.35;;;13.40;99.90;;;;;;5029065;28;20152;-77
2022/05/11 02:25:56;;;;;;;6.32;4.93;;;13.40;99.90;;;;;;5031298;28;20504;-77
2022/05/11 02:28:22;;;;;;;6.70;5.28;;;13.40;99.90;;;;;;5027348;28;20076;-76
2022/05/11 02:30:49;;;;;;;8.52;5.40;;;13.40;99.90;;;;;;5031434;28;20043;-77
2022/05/11 02:33:15;;;;;;;6.07;5.03;;;13.40;99.90;;;;;;5030407;28;20044;-77
2022/05/11 02:35:43;;;;;;;7.47;5.15;;;13.40;99.90;;;;;;5025494;28;20409;-75
2022/05/11 02:38:15;;;;;;;6.80;4.93;;;13.40;99.90;;;;;;5015110;28;20045;-76
2022/05/11 02:40:41;;;;;;;7.63;5.05;;;13.40;99.90;;;;;;5032180;28;20029;-77
2022/05/11 02:43:09;;;;;;;5.75;4.75;;;13.40;99.90;;;;;;5038170;28;20036;-78
2022/05/11 02:45:37;;;;;;;6.03;4.70;;;13.40;99.90;;;;;;5020384;28;20064;-77
2022/05/11 02:48:03;;;;;;;6.75;4.80;;;13.40;99.90;;;;;;5027876;28;20139;-77
2022/05/11 02:50:37;;;;;;;6.55;4.57;;;13.40;99.90;;;;;;5014624;28;20091;-77
2022/05/11 02:53:07;;;;;;;9.40;4.88;;;13.40;99.90;;;;;;5026320;28;20041;-76
2022/05/11 02:55:34;;;;;;;6.53;4.60;;;13.40;99.90;;;;;;5026962;28;20029;-77
2022/05/11 02:58:00;;;;;;;8.05;4.78;;;13.40;99.90;;;;;;5023011;28;20478;-77
2022/05/11 03:00:25;;;;;;;6.75;4.90;;;13.40;99.90;;;;;;5030685;28;20086;-77
2022/05/11 03:02:51;;;;;;;5.88;4.60;;;13.40;99.90;;;;;;5017943;28;20148;-77
2022/05/11 03:05:16;;;;;;;7.18;4.47;;;13.40;99.90;;;;;;5025419;28;20048;-77
2022/05/11 03:07:42;;;;;;;6.20;4.80;;;13.40;99.90;;;;;;5029837;28;20041;-77
2022/05/11 03:10:08;;;;;;;4.78;4.18;;;13.40;99.90;;;;;;5027483;28;20059;-77
2022/05/11 03:12:35;;;;;;;6.10;4.72;;;13.40;99.90;;;;;;5028468;28;20037;-77
2022/05/11 03:15:01;;;;;;;6.63;4.90;;;13.40;99.90;;;;;;5029904;28;20037;-77
2022/05/11 03:17:27;;;;;;;6.20;4.68;;;13.40;99.90;;;;;;5009617;28;20751;-76
2022/05/11 03:19:52;;;;;;;6.82;5.10;;;13.40;99.90;;;;;;5010814;28;20033;-76
2022/05/11 03:22:18;;;;;;;7.60;4.93;;;13.40;99.90;;;;;;5030708;28;20124;-76
2022/05/11 03:24:44;;;;;;;8.77;5.45;;;13.40;99.90;;;;;;5028754;28;20072;-76
2022/05/11 03:27:10;;;;;;;8.32;5.00;;;13.40;99.90;;;;;;5027824;28;20052;-76
2022/05/11 03:29:36;;;;;;;6.65;4.75;;;13.40;99.90;;;;;;5028550;28;20037;-77
2022/05/11 03:34:46;;;;;;;8.93;5.10;;;13.50;99.90;;;;;;5025074;28;20045;-76
2022/05/11 03:37:15;;;;;;;7.40;5.03;;;13.50;99.90;;;;;;5021266;28;20037;-77
2022/05/11 03:39:41;;;;;;;9.77;5.13;;;13.50;99.90;;;;;;5021195;28;20538;-77
2022/05/11 03:42:11;;;;;;;5.82;4.63;;;13.50;99.90;;;;;;5012772;28;20071;-77
2022/05/11 03:44:36;;;;;;;7.30;5.18;;;13.50;99.90;;;;;;5025382;28;20045;-77
2022/05/11 03:47:02;;;;;;;7.28;4.88;;;13.50;99.90;;;;;;5030016;28;20041;-77
2022/05/11 03:49:28;;;;;;;7.03;5.30;;;13.50;99.90;;;;;;5011563;28;20128;-78
2022/05/11 03:51:54;;;;;;;9.68;5.22;;;13.50;99.90;;;;;;5024602;28;20068;-77
2022/05/11 03:54:19;;;;;;;7.63;5.05;;;13.50;99.90;;;;;;5027020;28;20036;-77
2022/05/11 03:56:45;;;;;;;8.73;4.60;;;13.60;99.90;;;;;;5033864;28;20077;-77
2022/05/11 03:59:11;;;;;;;7.63;4.80;;;13.60;99.90;;;;;;5028957;28;20060;-77
2022/05/11 04:01:37;;;;;;;8.10;4.53;;;13.60;99.90;;;;;;5049899;28;20040;-77
2022/05/11 04:04:03;;;;;;;6.57;4.43;;;13.60;99.90;;;;;;5029578;28;20040;-76
2022/05/11 04:06:29;;;;;;;7.72;4.40;;;13.60;99.90;;;;;;5027071;28;20029;-77
2022/05/11 04:08:55;;;;;;;5.10;4.43;;;13.60;99.90;;;;;;5030251;28;20069;-77
2022/05/11 04:11:22;;;;;;;6.40;4.18;;;13.50;99.90;;;;;;5028089;28;20469;-78
2022/05/11 04:13:49;;;;;;;7.43;4.20;;;13.60;99.90;;;;;;5023699;28;20037;-76
2022/05/11 04:16:16;;;;;;;8.88;4.50;;;13.60;99.90;;;;;;5017620;28;20048;-76
2022/05/11 04:18:42;;;;;;;7.45;4.65;;;13.60;99.90;;;;;;5029309;28;20049;-77
2022/05/11 04:21:09;;;;;;;7.07;4.10;;;13.60;99.90;;;;;;5033756;28;20041;-77
2022/05/11 04:23:35;;;;;;;7.82;4.03;;;13.60;99.90;;;;;;5016694;28;20608;-77
2022/05/11 04:26:00;;;;;;;8.77;4.57;;;13.60;99.90;;;;;;5028501;28;20083;-77
2022/05/11 04:28:26;;;;;;;12.90;5.47;;;13.60;99.90;;;;;;5022071;28;20056;-77
2022/05/11 04:31:03;;;;;;;8.85;4.82;;;13.60;99.90;;;;;;5016649;28;20044;-77
2022/05/11 04:33:29;;;;;;;7.43;4.43;;;13.70;99.90;;;;;;5033883;28;20399;-77
2022/05/11 04:35:55;;;;;;;7.93;5.13;;;13.70;99.90;;;;;;5032570;28;20043;-78
2022/05/11 04:38:20;;;;;;;9.50;4.50;;;13.70;99.90;;;;;;5016312;28;20393;-77
2022/05/11 04:40:46;;;;;;;6.50;4.65;;;13.70;99.90;;;;;;5031908;28;20061;-77
2022/05/11 04:43:12;;;;;;;24.45;5.65;;;13.80;99.90;;;;;;5029539;28;20041;-77
2022/05/11 04:45:43;;;;;;;7.43;4.38;;;13.80;99.90;;;;;;5029562;28;20044;-78
2022/05/11 04:48:09;;;;;;;6.07;4.30;;;13.80;99.90;;;;;;5030202;28;20036;-78
2022/05/11 04:50:41;;;;;;;7.10;4.00;;;13.80;99.90;;;;;;5033985;28;20059;-78
2022/05/11 04:53:08;;;;;;;10.20;4.70;;;13.90;99.90;;;;;;5033870;28;20072;-77
2022/05/11 04:55:34;;;;;;;9.48;4.70;;;13.80;99.90;;;;;;5034325;28;20044;-77
2022/05/11 04:57:59;;;;;;;9.80;4.47;;;13.90;99.90;;;;;;5017302;28;20047;-77
2022/05/11 05:00:25;;;;;;;5.68;4.38;;;13.90;99.90;;;;;;5032497;28;20120;-77
2022/05/11 05:02:51;;;;;;;9.07;4.85;;;13.90;99.90;;;;;;5006068;28;20049;-77
2022/05/11 05:05:18;;;;;;;9.18;5.13;;;13.90;99.90;;;;;;5011789;28;20592;-77
2022/05/11 05:07:44;;;;;;;9.50;5.13;;;13.90;99.90;;;;;;5030471;28;20065;-77
2022/05/11 05:10:12;;;;;;;10.02;4.57;;;14.00;99.90;;;;;;5032669;28;20049;-77
2022/05/11 05:12:39;;;;;;;6.47;4.75;;;14.00;99.90;;;;;;5029907;28;20047;-77
2022/05/11 05:15:05;;;;;;;8.02;4.63;;;14.10;99.90;;;;;;5026854;28;20390;-78
2022/05/11 05:17:30;;;;;;;9.48;4.88;;;14.20;99.90;;;;;;5032483;28;20045;-78
2022/05/11 05:19:56;;;;;;;8.55;5.10;;;14.20;99.90;;;;;;5030485;28;20047;-78
2022/05/11 05:22:22;;;;;;;9.55;4.50;;;14.30;99.90;;;;;;5032673;28;20053;-77
2022/05/11 05:24:50;;;;;;;8.05;5.15;;;14.30;99.90;;;;;;5013974;28;20045;-77
2022/05/11 05:27:17;;;;;;;9.30;4.60;;;14.30;99.90;;;;;;5032907;28;20057;-78
2022/05/11 05:32:34;;;;;;;9.38;4.10;;;14.40;99.90;;;;;;5030794;28;20049;-78
2022/05/11 05:35:00;;;;;;;9.93;4.10;;;14.40;99.90;;;;;;5033274;28;20060;-78
2022/05/11 05:37:25;;;;;;;8.68;5.05;;;14.50;99.90;;;;;;5033105;28;20059;-77
2022/05/11 05:39:51;;;;;;;10.77;5.03;;;14.50;99.90;;;;;;5017079;28;20045;-78
2022/05/11 05:42:18;;;;;;;10.63;4.47;;;14.50;99.90;;;;;;5033380;28;20037;-78
2022/05/11 05:44:44;;;;;;;8.90;4.57;;;14.50;99.90;;;;;;5028623;28;20486;-77
2022/05/11 05:47:11;;;;;;;8.05;4.45;;;14.60;99.90;;;;;;5024215;28;20111;-78
2022/05/11 05:49:37;;;;;;;9.55;4.43;;;14.60;99.90;;;;;;5008332;28;20125;-78
2022/05/11 05:52:03;;;;;;;6.97;4.70;;;14.70;99.90;;;;;;5031889;28;20127;-78
2022/05/11 05:54:32;;;;;;;25.13;6.05;;;14.80;99.90;;;;;;5031051;28;20454;-78
2022/05/11 05:56:59;;;;;;;6.53;4.85;;;14.90;99.90;;;;;;5027876;28;20045;-79
2022/05/11 05:59:24;;;;;;;12.80;4.93;;;15.00;99.90;;;;;;5046205;28;20540;-80
2022/05/11 06:01:50;;;;;;;7.25;4.60;;;15.10;99.90;;;;;;5037907;28;20045;-77
2022/05/11 06:04:15;;;;;;;9.32;4.47;;;15.10;99.90;;;;;;5006667;28;20466;-77
2022/05/11 06:06:42;;;;;;;9.80;4.45;;;15.20;99.90;;;;;;5025479;28;20049;-78
2022/05/11 06:09:09;;;;;;;7.70;5.28;;;15.30;99.90;;;;;;5047657;22;20045;-74
2022/05/11 06:11:35;;;;;;;8.38;5.00;;;15.40;99.90;;;;;;5049088;28;20072;-74
2022/05/11 06:14:01;;;;;;;7.72;5.18;;;15.40;99.90;;;;;;5062264;28;20036;-74
2022/05/11 06:16:27;;;;;;;9.65;4.80;;;15.40;99.90;;;;;;5044143;28;20539;-74
2022/05/11 06:18:53;;;;;;;8.85;5.20;;;15.40;99.90;;;;;;5046759;28;20139;-73
2022/05/11 06:21:19;;;;;;;9.27;5.07;;;15.40;99.90;;;;;;5049205;28;20118;-74
2022/05/11 06:23:45;;;;;;;8.32;4.90;;;15.50;99.90;;;;;;5043045;28;20040;-75
2022/05/11 06:26:11;;;;;;;8.95;4.38;;;15.50;99.90;;;;;;5049812;28;20044;-74
2022/05/11 06:28:40;;;;;;;8.27;5.63;;;15.50;99.90;;;;;;5050603;28;20072;-75
2022/05/11 06:31:06;;;;;;;8.27;5.50;;;15.60;99.90;;;;;;5048348;28;20054;-75
2022/05/11 06:33:34;;;;;;;7.18;5.22;;;15.60;99.90;;;;;;5050111;28;20646;-75
2022/05/11 06:36:04;;;;;;;8.07;5.35;;;15.70;99.90;;;;;;5051478;28;20045;-74
2022/05/11 06:38:29;;;;;;;12.00;5.78;;;15.90;99.90;;;;;;5050263;28;20083;-74
2022/05/11 06:40:55;;;;;;;12.35;5.05;;;16.00;99.90;;;;;;5046245;28;20076;-74
2022/05/11 06:43:21;;;;;;;10.15;5.28;;;16.10;99.90;;;;;;5043358;28;20365;-74
2022/05/11 06:45:47;;;;;;;10.43;5.82;;;16.30;99.90;;;;;;5063926;28;20098;-74
2022/05/11 06:48:14;;;;;;;9.70;4.80;;;16.50;99.90;;;;;;5044597;28;20123;-75
2022/05/11 06:50:41;;;;;;;10.50;4.93;;;16.60;99.90;;;;;;5047087;28;20044;-75
2022/05/11 06:53:12;;;;;;;12.00;6.10;;;16.70;99.90;;;;;;5043517;28;20121;-75
2022/05/11 07:01:12;;;;;;;12.75;5.32;;;16.70;99.90;;;;;;5044147;28;20040;-75
2022/05/11 07:03:38;;;;;;;10.30;5.47;;;16.60;99.90;;;;;;5035177;28;20512;-76
2022/05/11 07:06:05;;;;;;;9.48;5.03;;;16.60;99.90;;;;;;5049164;28;20040;-75
2022/05/11 07:08:36;;;;;;;9.32;5.53;;;16.60;99.90;;;;;;5047957;28;20087;-76
2022/05/11 07:13:46;;;;;;;11.75;5.22;;;16.60;99.90;;;;;;5059295;28;20052;-75
2022/05/11 07:16:13;;;;;;;9.07;4.95;;;16.70;99.90;;;;;;5045391;28;20040;-75
2022/05/11 07:18:39;;;;;;;9.50;5.10;;;16.70;99.90;;;;;;5046568;28;20162;-74
2022/05/11 07:21:05;;;;;;;12.68;4.70;;;16.70;99.90;;;;;;5048473;28;20048;-75
2022/05/11 07:23:31;;;;;;;12.63;4.50;;;16.80;99.90;;;;;;5048563;28;20123;-76
2022/05/11 07:25:57;;;;;;;9.68;4.85;;;17.00;99.90;;;;;;5051199;28;20132;-76
2022/05/11 07:28:23;;;;;;;9.70;4.15;;;17.30;99.90;;;;;;5053807;28;20123;-76
2022/05/11 07:30:50;;;;;;;10.38;4.78;;;17.70;99.90;;;;;;5055594;28;20048;-74
2022/05/11 07:33:15;;;;;;;7.95;4.40;;;18.10;99.90;;;;;;5051328;28;20094;-75
2022/05/11 07:35:43;;;;;;;9.02;4.53;;;18.40;99.90;;;;;;5053138;28;20482;-75
2022/05/11 07:38:13;;;;;;;6.75;4.13;;;18.50;99.90;;;;;;5054792;28;20036;-75
2022/05/11 07:40:40;;;;;;;10.68;4.13;;;18.40;99.90;;;;;;5051191;28;20156;-76
2022/05/11 07:43:07;;;;;;;10.05;4.05;;;18.40;99.90;;;;;;5035099;28;20486;-75
2022/05/11 07:45:33;;;;;;;7.75;3.70;;;18.60;99.60;;;;;;5051696;28;20588;-73
2022/05/11 07:47:59;;;;;;;8.50;3.38;;;18.60;99.50;;;;;;5054957;28;20064;-76
2022/05/11 07:50:24;;;;;;;10.63;3.45;;;18.70;98.90;;;;;;5054303;28;20166;-75
2022/05/11 07:52:50;;;;;;;8.50;3.95;;;18.80;98.50;;;;;;5054649;28;20128;-76
2022/05/11 07:55:17;;;;;;;8.85;4.07;;;19.20;98.20;;;;;;5049996;28;20044;-74
2022/05/11 08:00:27;;;;;;;7.05;3.70;;;19.50;97.50;;;;;;5053861;28;20044;-76
2022/05/11 08:02:53;;;;;;;9.80;3.70;;;19.30;97.70;;;;;;5054330;28;20044;-76
2022/05/11 08:05:20;;;;;;;6.78;3.13;;;19.20;98.10;;;;;;5054587;28;20382;-76
2022/05/11 08:07:49;;;;;;;9.95;3.65;;;19.10;98.20;;;;;;5050425;28;20048;-75
2022/05/11 08:10:29;;;;;;;6.70;3.25;;;19.10;97.70;;;;;;5030829;28;20081;-76
2022/05/11 08:12:55;;;;;;;9.48;3.45;;;19.10;98.50;;;;;;5024257;28;20040;-76
2022/05/11 08:15:22;;;;;;;10.05;3.40;;;19.40;98.20;;;;;;5045242;28;20091;-76
2022/05/11 08:17:49;;;;;;;5.43;2.90;;;19.60;97.50;;;;;;5049369;28;20036;-75
2022/05/11 08:20:19;;;;;;;9.18;3.20;;;19.80;96.80;;;;;;5045688;28;20041;-76
2022/05/11 08:22:45;;;;;;;8.52;2.88;;;20.10;96.60;;;;;;5050275;28;20056;-75
2022/05/11 08:25:13;;;;;;;9.30;2.88;;;20.10;96.10;;;;;;5049388;28;20126;-75
2022/05/11 08:27:39;;;;;;;11.38;3.10;;;20.00;95.70;;;;;;5046326;28;20120;-75
2022/05/11 08:35:34;;;;;;;7.00;2.38;;;20.10;95.80;;;;;;5051093;28;20049;-75
2022/05/11 08:38:00;;;;;;;9.80;2.60;;;20.30;95.80;;;;;;5067358;28;20037;-75
2022/05/11 08:40:36;;;;;;;10.07;2.85;;;20.40;95.20;;;;;;5036781;28;20073;-75
2022/05/11 08:43:02;;;;;;;9.23;2.38;;;20.50;94.60;;;;;;5050920;28;20151;-75
2022/05/11 08:46:04;;;;;;;9.55;2.28;;;20.40;94.50;;;;;;5037779;28;20063;-75
2022/05/11 08:48:39;;;;;;;7.43;2.47;;;20.10;94.60;;;;;;5042518;28;20081;-75
2022/05/11 08:51:09;;;;;;;6.43;1.92;;;20.00;94.50;;;;;;5050796;28;20041;-75
2022/05/11 08:53:38;;;;;;;6.30;2.40;;;20.00;94.80;;;;;;5034603;28;20073;-75
2022/05/11 08:56:13;;;;;;;11.15;3.13;;;20.10;94.80;;;;;;5030811;28;20047;-75
2022/05/11 08:58:49;;;;;;;8.07;2.00;;;20.20;94.60;;;;;;5049375;28;20029;-75
2022/05/11 09:01:40;;;;;;;6.72;2.20;;;20.20;93.70;;;;;;5048383;28;20068;-75
2022/05/11 09:04:09;;;;;;;7.85;2.15;;;20.20;94.00;;;;;;5026836;28;20037;-76
2022/05/11 09:06:36;;;;;;;8.07;2.33;;;20.10;94.40;;;;;;5043849;28;20123;-76
2022/05/11 09:09:03;;;;;;;7.00;2.33;;;20.20;94.20;;;;;;5044352;28;20058;-76
2022/05/11 09:11:52;;;;;;;9.38;2.63;;;20.30;94.10;;;;;;5053134;28;20132;-76
2022/05/11 09:14:25;;;;;;;8.48;1.90;;;20.40;93.30;;;;;;5045848;28;20057;-75
2022/05/11 09:16:51;;;;;;;12.50;2.42;;;20.40;93.60;;;;;;5042198;28;20049;-76
2022/05/11 09:19:30;;;;;;;8.77;2.25;;;20.40;93.70;;;;;;5027619;28;20131;-73
2022/05/11 09:22:23;;;;;;;9.98;2.55;;;20.50;93.70;;;;;;5057074;28;20536;-73
2022/05/11 09:24:58;;;;;;;8.93;2.05;;;20.40;93.50;;;;;;5044628;28;20060;-72
2022/05/11 09:27:36;;;;;;;8.82;2.65;;;20.50;93.80;;;;;;5030343;28;20167;-73
2022/05/11 09:30:25;;;;;;;7.18;2.10;;;20.60;93.60;;;;;;5043928;28;20046;-73
2022/05/11 09:33:11;;;;;;;7.55;2.25;;;20.60;93.10;;;;;;5045068;28;20441;-73
2022/05/11 09:35:37;;;;;;;6.85;2.22;;;20.80;93.50;;;;;;5044377;28;20451;-73
2022/05/11 09:38:36;;;;;;;31.35;4.45;;;21.00;93.10;;;;;;5061227;28;20540;-74
2022/05/11 09:41:10;;;;;;;10.43;2.53;;;21.20;92.40;;;;;;5048964;28;20494;-74
2022/05/11 09:43:43;;;;;;;17.70;2.60;;;21.40;92.40;;;;;;5046212;28;20128;-74
2022/05/11 09:46:26;;;;;;;9.38;2.38;;;21.30;92.00;;;;;;5044841;28;20079;-75
2022/05/11 09:48:59;;;;;;;7.90;2.10;;;21.40;92.20;;;;;;5028175;28;20522;-74
2022/05/11 09:51:38;;;;;;;10.50;2.40;;;21.30;91.90;;;;;;5028875;28;20095;-74
2022/05/11 09:54:23;;;;;;;9.27;2.10;;;21.10;92.00;;;;;;5040801;28;20041;-73
2022/05/11 09:56:49;;;;;;;8.57;2.30;;;21.10;92.00;;;;;;5041599;28;20445;-74
2022/05/11 09:59:22;;;;;;;7.75;1.92;;;21.10;92.20;;;;;;5062138;28;20044;-74
2022/05/11 10:01:51;;;;;;;9.20;2.28;;;21.20;92.20;;;;;;5047707;28;20044;-74
2022/05/11 10:04:22;;;;;;;8.30;1.88;;;21.20;91.60;;;;;;5031253;28;20159;-74
2022/05/11 10:06:52;;;;;;;11.10;2.42;;;21.00;92.00;;;;;;5049437;28;20040;-74
2022/05/11 10:09:31;;;;;;;8.40;2.10;;;20.70;91.80;;;;;;5027344;28;20049;-73
2022/05/11 10:11:58;;;;;;;10.80;2.50;;;20.50;92.10;;;;;;5030049;28;20178;-73
2022/05/11 10:23:05;;;;;;;8.68;1.90;;;20.10;92.90;;;;;;5039530;28;20484;-72
2022/05/11 10:25:42;;;;;;;5.85;2.00;;;20.10;92.80;;;;;;5059632;28;20036;-72
2022/05/11 10:28:20;;;;;;;8.35;2.13;;;20.10;92.70;;;;;;5039595;28;20036;-72
2022/05/11 10:31:13;;;;;;;9.38;1.92;;;20.10;92.60;;;;;;5041927;28;20194;-72
2022/05/11 10:33:51;;;;;;;8.13;1.83;;;20.10;92.40;;;;;;5036468;28;20052;-72
2022/05/11 10:36:32;;;;;;;8.35;2.15;;;19.90;92.60;;;;;;5038112;28;20041;-72
2022/05/11 10:39:00;;;;;;;9.60;2.08;;;19.80;92.70;;;;;;5025156;28;20080;-73
2022/05/11 10:41:53;;;;;;;9.52;2.40;;;19.90;93.20;;;;;;5043517;28;20053;-72
2022/05/11 10:44:52;;;;;;;15.50;2.15;;;20.00;92.80;;;;;;5063205;28;20699;-72
2022/05/11 10:47:35;;;;;;;5.30;1.80;;;20.20;92.70;;;;;;5030493;28;20049;-73
2022/05/11 10:50:13;;;;;;;7.30;1.70;;;20.10;92.90;;;;;;5065350;28;20095;-73
2022/05/11 10:52:50;;;;;;;7.68;2.42;;;20.10;93.10;;;;;;5064427;28;20506;-73
2022/05/11 10:55:25;;;;;;;7.93;1.75;;;20.20;92.40;;;;;;5031905;28;20131;-73
2022/05/11 10:58:20;;;;;;;11.25;1.90;;;20.50;92.70;;;;;;5047471;28;20087;-73
2022/05/11 11:01:08;;;;;;;4.72;1.52;;;20.60;91.30;;;;;;5045841;28;20041;-71
2022/05/11 11:04:04;;;;;;;7.20;1.58;;;20.80;91.40;;;;;;5047221;28;20094;-72
2022/05/11 11:09:45;;;;;;;10.20;1.23;;;21.10;90.70;;;;;;5055083;28;20076;-71
2022/05/11 11:12:28;;;;;;;20.00;2.28;;;21.40;90.50;;;;;;5047888;28;20040;-71
2022/05/11 11:14:57;;;;;;;4.18;1.30;;;21.60;89.80;;;;;;5028934;28;20094;-72
2022/05/11 11:17:26;;;;;;;5.70;1.65;;;21.60;88.30;;;;;;5037478;28;20037;-73
2022/05/11 11:20:00;;;;;;;14.18;1.60;;;21.50;88.80;;;;;;5071155;28;20045;-73
2022/05/11 11:22:26;;;;;;;15.48;2.03;;;21.50;89.20;;;;;;5036442;28;20063;-71
2022/05/11 11:25:10;;;;;;;176.13;10.90;;;21.30;86.20;;;;;;5039406;28;20041;-73
2022/05/11 11:28:01;;;;;;;8.88;1.40;;;21.10;89.60;;;;;;5054340;28;20047;-73
2022/05/11 11:30:27;;;;;;;5.60;1.20;;;21.10;89.20;;;;;;5054071;28;20041;-73
2022/05/11 11:33:12;;;;;;;6.70;1.38;;;21.10;86.00;;;;;;5052578;28;20033;-72
2022/05/11 11:35:56;;;;;;;75.07;5.05;;;21.10;87.40;;;;;;5037745;28;20037;-73
2022/05/11 11:38:30;;;;;;;5.93;1.27;;;21.20;86.00;;;;;;5029225;28;20043;-73
2022/05/11 11:41:18;;;;;;;155.10;10.50;;;21.30;85.80;;;;;;5051283;28;20382;-73
2022/05/11 11:44:05;;;;;;;5.78;1.50;;;21.40;87.00;;;;;;5048158;28;20048;-72
2022/05/11 11:46:38;;;;;;;5.72;1.33;;;21.60;83.70;;;;;;5052303;28;20401;-73
2022/05/11 11:49:20;;;;;;;12.70;1.60;;;21.60;85.30;;;;;;5051454;28;20080;-74
2022/05/11 11:52:00;;;;;;;9.85;1.52;;;21.80;84.90;;;;;;5051955;28;20433;-73
2022/05/11 11:54:32;;;;;;;3.65;1.10;;;21.80;83.60;;;;;;5029035;28;20090;-73
2022/05/11 11:57:00;;;;;;;4.95;1.05;;;21.90;84.50;;;;;;5052769;28;20047;-73
2022/05/11 11:59:26;;;;;;;4.55;1.05;;;21.90;85.40;;;;;;5048430;28;20741;-73
2022/05/11 12:01:57;;;;;;;7.70;1.33;;;22.00;84.60;;;;;;5052501;28;20044;-73
2022/05/11 12:04:36;;;;;;;5.80;1.60;;;22.20;83.40;;;;;;5053915;28;20112;-74
2022/05/11 12:15:33;;;;;;;11.90;1.60;;;22.20;80.60;;;;;;5053258;28;20044;-74
2022/05/11 12:18:00;;;;;;;5.88;1.40;;;21.90;83.80;;;;;;5049899;28;20078;-72
2022/05/11 12:20:39;;;;;;;10.23;1.40;;;21.80;84.10;;;;;;5049820;28;20095;-74
2022/05/11 12:23:17;;;;;;;5.28;1.75;;;21.80;84.00;;;;;;5048383;28;20032;-73
2022/05/11 12:25:54;;;;;;;5.82;1.27;;;21.80;84.20;;;;;;5047897;28;20033;-73
2022/05/11 12:28:40;;;;;;;15.05;2.30;;;21.80;83.30;;;;;;5054787;28;20048;-73
2022/05/11 12:31:06;;;;;;;5.82;1.50;;;22.10;84.50;;;;;;5053350;28;20048;-73
2022/05/11 12:33:35;;;;;;;10.07;1.80;;;22.00;81.80;;;;;;5050721;28;20087;-73
2022/05/11 12:36:02;;;;;;;5.57;1.42;;;21.80;82.20;;;;;;5045588;28;20537;-73
2022/05/11 12:38:41;;;;;;;6.63;1.58;;;21.70;83.00;;;;;;5057933;28;20037;-73
2022/05/11 12:41:18;;;;;;;6.95;1.40;;;21.70;82.70;;;;;;5040199;28;20037;-73
2022/05/11 12:44:01;;;;;;;4.93;1.60;;;21.70;80.90;;;;;;5052211;28;20048;-73
2022/05/11 12:46:28;;;;;;;3.78;1.40;;;21.50;79.80;;;;;;5054042;28;20044;-74
2022/05/11 12:49:00;;;;;;;52.95;4.30;;;21.60;84.20;;;;;;5052156;28;20109;-74
2022/05/11 12:51:34;;;;;;;;;;;21.70;79.20;;;;;;5054613;28;20044;-74
2022/05/11 12:54:02;;;;;;;25.63;2.67;;;21.80;81.10;;;;;;5034452;28;19943;-73
2022/05/11 12:56:31;;;;;;;29.67;3.42;;;21.90;80.70;;;;;;5051344;28;20048;-75
2022/05/11 12:59:02;;;;;;;29.08;2.60;;;22.00;81.30;;;;;;5035906;28;20040;-74
2022/05/11 13:01:34;;;;;;;12.27;1.88;;;22.00;80.90;;;;;;5059908;28;20585;-74
2022/05/11 13:04:01;;;;;;;7.60;1.85;;;22.00;80.70;;;;;;5068672;28;20044;-74
2022/05/11 13:06:33;;;;;;;16.27;2.58;;;22.10;80.60;;;;;;5029614;28;20408;-75
2022/05/11 13:09:06;;;;;;;9.40;1.85;;;22.20;81.20;;;;;;5070133;28;20064;-74
2022/05/11 13:11:33;;;;;;;11.55;1.83;;;22.20;80.00;;;;;;5053773;28;20091;-75
2022/05/11 13:13:59;;;;;;;62.05;4.07;;;22.10;80.40;;;;;;5053699;28;20040;-75
2022/05/11 13:16:31;;;;;;;11.55;2.13;;;22.00;82.10;;;;;;5053877;28;20135;-74
2022/05/11 13:19:30;;;;;;;15.98;2.13;;;21.80;79.70;;;;;;5052931;28;20090;-74
2022/05/11 13:21:58;;;;;;;8.63;2.00;;;21.80;80.60;;;;;;5040972;28;20052;-74
2022/05/11 13:24:46;;;;;;;8.07;2.30;;;21.80;83.10;;;;;;5031807;28;20462;-74
2022/05/11 13:27:38;;;;;;;11.13;2.63;;;21.60;83.10;;;;;;5051542;28;20040;-74
2022/05/11 13:30:35;;;;;;;7.13;1.50;;;21.60;84.50;;;;;;5047143;28;20446;-74
2022/05/11 13:33:04;;;;;;;12.13;1.98;;;21.60;85.00;;;;;;5048949;28;20044;-74
2022/05/11 13:35:40;;;;;;;9.98;1.83;;;21.60;82.90;;;;;;5049100;28;20094;-75
2022/05/11 13:38:09;;;;;;;6.35;1.88;;;21.60;84.00;;;;;;5047207;28;20055;-74
2022/05/11 13:40:55;;;;;;;8.75;1.77;;;21.70;83.90;;;;;;5063022;28;20124;-74
2022/05/11 13:43:22;;;;;;;9.98;1.50;;;21.60;83.10;;;;;;5031095;28;20068;-75
2022/05/11 13:46:09;;;;;;;5.13;1.38;;;21.70;82.30;;;;;;5063560;28;20086;-73
2022/05/11 13:48:44;;;;;;;5.00;1.50;;;21.80;82.40;;;;;;5043942;28;20045;-74
2022/05/11 13:51:22;;;;;;;7.30;1.63;;;21.90;82.40;;;;;;5050910;28;20044;-73